sensor_id;sensor_type;location;lat;lon;timestamp;pressure;altitude;pressure_sealevel;temperature;humidity
56689;BME280;42565;53.342;-1.534;2023-08-31T00:01:34;98331.27;;;14.55;63.64
56689;BME280;42565;53.342;-1.534;2023-08-31T00:04:01;98326.47;;;14.69;62.88
56689;BME280;42565;53.342;-1.534;2023-08-31T00:06:30;98325.12;;;15.17;62.95
56689;BME280;42565;53.342;-1.534;2023-08-31T00:08:57;98321.01;;;14.73;62.99
56689;BME280;42565;53.342;-1.534;2023-08-31T00:11:25;98318.76;;;15.01;62.85
56689;BME280;42565;53.342;-1.534;2023-08-31T00:13:52;98318.68;;;15.27;61.52
56689;BME280;42565;53.342;-1.534;2023-08-31T00:16:24;98318.92;;;15.65;61.08
56689;BME280;42565;53.342;-1.534;2023-08-31T00:18:52;98318.77;;;14.78;61.81
56689;BME280;42565;53.342;-1.534;2023-08-31T00:21:19;98316.26;;;15.67;60.93
56689;BME280;42565;53.342;-1.534;2023-08-31T00:23:47;98310.33;;;15.04;61.81
56689;BME280;42565;53.342;-1.534;2023-08-31T00:26:14;98314.16;;;14.92;62.62
56689;BME280;42565;53.342;-1.534;2023-08-31T00:28:42;98307.83;;;14.28;62.21
56689;BME280;42565;53.342;-1.534;2023-08-31T00:31:10;98304.06;;;15.07;62.26
56689;BME280;42565;53.342;-1.534;2023-08-31T00:33:41;98302.23;;;14.27;62.06
56689;BME280;42565;53.342;-1.534;2023-08-31T00:36:10;98297.71;;;15.23;61.61
56689;BME280;42565;53.342;-1.534;2023-08-31T00:38:38;98296.68;;;14.37;62.32
56689;BME280;42565;53.342;-1.534;2023-08-31T00:41:07;98293.25;;;14.72;62.83
56689;BME280;42565;53.342;-1.534;2023-08-31T00:43:36;98295.79;;;14.77;63.29
56689;BME280;42565;53.342;-1.534;2023-08-31T00:46:03;98290.62;;;14.98;63.39
56689;BME280;42565;53.342;-1.534;2023-08-31T00:48:35;98285.93;;;14.36;62.11
56689;BME280;42565;53.342;-1.534;2023-08-31T00:51:07;98289.96;;;15.06;60.43
56689;BME280;42565;53.342;-1.534;2023-08-31T00:53:37;98291.39;;;15.07;58.42
56689;BME280;42565;53.342;-1.534;2023-08-31T00:56:06;98290.76;;;15.16;57.95
56689;BME280;42565;53.342;-1.534;2023-08-31T00:58:35;98290.15;;;15.57;58.52
56689;BME280;42565;53.342;-1.534;2023-08-31T01:01:11;98288.53;;;15.34;58.82
56689;BME280;42565;53.342;-1.534;2023-08-31T01:03:50;98287.11;;;15.50;58.34
56689;BME280;42565;53.342;-1.534;2023-08-31T01:06:32;98291.05;;;15.17;60.10
56689;BME280;42565;53.342;-1.534;2023-08-31T01:09:07;98292.02;;;15.59;59.37
56689;BME280;42565;53.342;-1.534;2023-08-31T01:11:52;98297.58;;;14.56;60.18
56689;BME280;42565;53.342;-1.534;2023-08-31T01:14:33;98296.24;;;16.01;58.80
56689;BME280;42565;53.342;-1.534;2023-08-31T01:17:02;98297.20;;;16.46;58.45
56689;BME280;42565;53.342;-1.534;2023-08-31T01:19:48;98295.43;;;15.19;60.69
56689;BME280;42565;53.342;-1.534;2023-08-31T01:22:29;98301.85;;;15.43;59.83
56689;BME280;42565;53.342;-1.534;2023-08-31T01:25:00;98298.93;;;14.94;60.46
56689;BME280;42565;53.342;-1.534;2023-08-31T01:27:30;98294.52;;;15.38;59.68
56689;BME280;42565;53.342;-1.534;2023-08-31T01:29:58;98295.46;;;15.35;60.44
56689;BME280;42565;53.342;-1.534;2023-08-31T01:32:26;98294.38;;;15.40;61.28
56689;BME280;42565;53.342;-1.534;2023-08-31T01:34:54;98295.62;;;14.13;61.80
56689;BME280;42565;53.342;-1.534;2023-08-31T01:37:29;98291.48;;;15.19;62.08
56689;BME280;42565;53.342;-1.534;2023-08-31T01:40:02;98294.29;;;14.83;62.64
56689;BME280;42565;53.342;-1.534;2023-08-31T01:42:34;98290.47;;;14.60;62.11
56689;BME280;42565;53.342;-1.534;2023-08-31T01:45:02;98295.05;;;15.09;62.64
56689;BME280;42565;53.342;-1.534;2023-08-31T01:47:29;98293.47;;;14.95;62.61
56689;BME280;42565;53.342;-1.534;2023-08-31T01:49:57;98296.04;;;14.53;63.80
56689;BME280;42565;53.342;-1.534;2023-08-31T01:52:24;98296.32;;;15.07;62.31
56689;BME280;42565;53.342;-1.534;2023-08-31T01:54:51;98298.39;;;15.33;62.53
56689;BME280;42565;53.342;-1.534;2023-08-31T01:57:19;98303.12;;;15.47;62.95
56689;BME280;42565;53.342;-1.534;2023-08-31T01:59:47;98303.60;;;14.59;63.59
56689;BME280;42565;53.342;-1.534;2023-08-31T02:02:14;98304.21;;;14.79;63.10
56689;BME280;42565;53.342;-1.534;2023-08-31T02:04:42;98305.47;;;14.63;62.08
56689;BME280;42565;53.342;-1.534;2023-08-31T02:07:09;98307.95;;;14.89;61.91
56689;BME280;42565;53.342;-1.534;2023-08-31T02:09:36;98305.10;;;14.34;62.47
56689;BME280;42565;53.342;-1.534;2023-08-31T02:12:04;98297.97;;;15.10;61.76
56689;BME280;42565;53.342;-1.534;2023-08-31T02:14:31;98297.36;;;14.53;61.97
56689;BME280;42565;53.342;-1.534;2023-08-31T02:16:59;98300.01;;;14.97;62.72
56689;BME280;42565;53.342;-1.534;2023-08-31T02:19:27;98296.69;;;15.06;62.86
56689;BME280;42565;53.342;-1.534;2023-08-31T02:21:54;98292.85;;;15.15;61.34
56689;BME280;42565;53.342;-1.534;2023-08-31T02:24:21;98291.83;;;15.06;61.52
56689;BME280;42565;53.342;-1.534;2023-08-31T02:26:49;98291.07;;;15.05;61.52
56689;BME280;42565;53.342;-1.534;2023-08-31T02:29:16;98288.52;;;14.89;62.05
56689;BME280;42565;53.342;-1.534;2023-08-31T02:31:44;98290.79;;;14.25;62.67
56689;BME280;42565;53.342;-1.534;2023-08-31T02:34:11;98291.03;;;14.35;62.67
56689;BME280;42565;53.342;-1.534;2023-08-31T02:36:40;98293.14;;;13.47;62.46
56689;BME280;42565;53.342;-1.534;2023-08-31T02:39:07;98292.61;;;14.66;61.68
56689;BME280;42565;53.342;-1.534;2023-08-31T02:41:35;98297.39;;;14.12;61.42
56689;BME280;42565;53.342;-1.534;2023-08-31T02:44:03;98297.48;;;14.47;61.22
56689;BME280;42565;53.342;-1.534;2023-08-31T02:46:30;98297.56;;;14.30;60.68
56689;BME280;42565;53.342;-1.534;2023-08-31T02:48:57;98296.20;;;14.21;60.89
56689;BME280;42565;53.342;-1.534;2023-08-31T02:51:24;98294.33;;;14.24;60.82
56689;BME280;42565;53.342;-1.534;2023-08-31T02:53:52;98293.70;;;14.29;60.49
56689;BME280;42565;53.342;-1.534;2023-08-31T02:56:18;98291.67;;;14.57;59.59
56689;BME280;42565;53.342;-1.534;2023-08-31T02:58:45;98289.70;;;14.38;59.33
56689;BME280;42565;53.342;-1.534;2023-08-31T03:01:13;98285.51;;;14.65;58.68
56689;BME280;42565;53.342;-1.534;2023-08-31T03:03:41;98281.48;;;14.00;58.68
56689;BME280;42565;53.342;-1.534;2023-08-31T03:06:09;98281.59;;;14.58;58.15
56689;BME280;42565;53.342;-1.534;2023-08-31T03:08:37;98282.84;;;14.45;57.01
56689;BME280;42565;53.342;-1.534;2023-08-31T03:11:05;98284.47;;;15.21;56.78
56689;BME280;42565;53.342;-1.534;2023-08-31T03:13:33;98282.89;;;14.40;56.96
56689;BME280;42565;53.342;-1.534;2023-08-31T03:16:01;98277.64;;;14.96;56.70
56689;BME280;42565;53.342;-1.534;2023-08-31T03:18:29;98277.07;;;15.35;56.16
56689;BME280;42565;53.342;-1.534;2023-08-31T03:20:57;98277.69;;;15.16;56.31
56689;BME280;42565;53.342;-1.534;2023-08-31T03:23:25;98274.59;;;15.63;56.18
56689;BME280;42565;53.342;-1.534;2023-08-31T03:25:52;98272.86;;;15.29;57.42
56689;BME280;42565;53.342;-1.534;2023-08-31T03:28:20;98272.70;;;15.10;57.72
56689;BME280;42565;53.342;-1.534;2023-08-31T03:30:54;98273.17;;;14.59;58.97
56689;BME280;42565;53.342;-1.534;2023-08-31T03:33:22;98268.07;;;14.72;59.34
56689;BME280;42565;53.342;-1.534;2023-08-31T03:35:50;98268.97;;;14.67;59.47
56689;BME280;42565;53.342;-1.534;2023-08-31T03:38:17;98267.27;;;14.76;59.00
56689;BME280;42565;53.342;-1.534;2023-08-31T03:40:52;98267.66;;;14.03;58.91
56689;BME280;42565;53.342;-1.534;2023-08-31T03:43:20;98268.90;;;14.63;59.89
56689;BME280;42565;53.342;-1.534;2023-08-31T03:45:47;98264.21;;;14.25;59.93
56689;BME280;42565;53.342;-1.534;2023-08-31T03:48:14;98258.75;;;14.69;59.63
56689;BME280;42565;53.342;-1.534;2023-08-31T03:50:42;98260.64;;;13.63;59.91
56689;BME280;42565;53.342;-1.534;2023-08-31T03:53:08;98261.33;;;14.41;59.50
56689;BME280;42565;53.342;-1.534;2023-08-31T03:55:36;98265.09;;;14.67;58.64
56689;BME280;42565;53.342;-1.534;2023-08-31T03:58:04;98261.83;;;14.24;60.14
56689;BME280;42565;53.342;-1.534;2023-08-31T04:00:31;98263.43;;;13.85;59.61
56689;BME280;42565;53.342;-1.534;2023-08-31T04:02:58;98265.40;;;14.11;59.27
56689;BME280;42565;53.342;-1.534;2023-08-31T04:05:26;98267.31;;;14.71;58.22
56689;BME280;42565;53.342;-1.534;2023-08-31T04:07:53;98265.80;;;13.89;58.82
56689;BME280;42565;53.342;-1.534;2023-08-31T04:10:19;98266.65;;;14.71;57.52
56689;BME280;42565;53.342;-1.534;2023-08-31T04:12:46;98268.26;;;14.49;57.23
56689;BME280;42565;53.342;-1.534;2023-08-31T04:15:14;98270.57;;;15.14;56.24
56689;BME280;42565;53.342;-1.534;2023-08-31T04:17:41;98274.90;;;14.33;57.04
56689;BME280;42565;53.342;-1.534;2023-08-31T04:20:09;98276.78;;;14.79;57.67
56689;BME280;42565;53.342;-1.534;2023-08-31T04:22:38;98277.45;;;13.90;57.48
56689;BME280;42565;53.342;-1.534;2023-08-31T04:25:06;98276.71;;;14.67;57.75
56689;BME280;42565;53.342;-1.534;2023-08-31T04:27:33;98277.49;;;14.18;58.09
56689;BME280;42565;53.342;-1.534;2023-08-31T04:30:01;98277.91;;;14.34;58.14
56689;BME280;42565;53.342;-1.534;2023-08-31T04:32:29;98280.15;;;14.38;59.27
56689;BME280;42565;53.342;-1.534;2023-08-31T04:34:56;98283.69;;;14.51;58.30
56689;BME280;42565;53.342;-1.534;2023-08-31T04:37:23;98280.12;;;14.76;58.24
56689;BME280;42565;53.342;-1.534;2023-08-31T04:39:50;98283.72;;;14.48;58.01
56689;BME280;42565;53.342;-1.534;2023-08-31T04:42:17;98285.17;;;14.79;57.65
56689;BME280;42565;53.342;-1.534;2023-08-31T04:44:44;98291.69;;;14.53;58.83
56689;BME280;42565;53.342;-1.534;2023-08-31T04:47:11;98291.60;;;14.23;59.70
56689;BME280;42565;53.342;-1.534;2023-08-31T04:49:38;98288.72;;;13.57;59.82
56689;BME280;42565;53.342;-1.534;2023-08-31T04:52:05;98294.69;;;14.24;59.92
56689;BME280;42565;53.342;-1.534;2023-08-31T04:54:33;98297.95;;;14.06;59.94
56689;BME280;42565;53.342;-1.534;2023-08-31T04:57:00;98304.31;;;14.58;58.96
56689;BME280;42565;53.342;-1.534;2023-08-31T04:59:27;98304.71;;;14.50;59.76
56689;BME280;42565;53.342;-1.534;2023-08-31T05:02:01;98303.30;;;13.67;59.95
56689;BME280;42565;53.342;-1.534;2023-08-31T05:04:29;98301.80;;;14.84;58.08
56689;BME280;42565;53.342;-1.534;2023-08-31T05:06:56;98299.62;;;15.02;57.32
56689;BME280;42565;53.342;-1.534;2023-08-31T05:09:25;98301.06;;;14.88;58.32
56689;BME280;42565;53.342;-1.534;2023-08-31T05:11:52;98304.02;;;14.75;58.12
56689;BME280;42565;53.342;-1.534;2023-08-31T05:14:19;98306.28;;;14.80;58.08
56689;BME280;42565;53.342;-1.534;2023-08-31T05:16:46;98304.15;;;13.97;58.51
56689;BME280;42565;53.342;-1.534;2023-08-31T05:19:13;98303.43;;;14.57;58.00
56689;BME280;42565;53.342;-1.534;2023-08-31T05:21:40;98304.40;;;14.43;57.35
56689;BME280;42565;53.342;-1.534;2023-08-31T05:24:08;98306.96;;;14.44;58.81
56689;BME280;42565;53.342;-1.534;2023-08-31T05:26:37;98310.41;;;14.76;58.23
56689;BME280;42565;53.342;-1.534;2023-08-31T05:29:04;98306.95;;;14.42;59.83
56689;BME280;42565;53.342;-1.534;2023-08-31T05:31:32;98302.83;;;14.98;59.10
56689;BME280;42565;53.342;-1.534;2023-08-31T05:33:59;98302.96;;;14.43;59.00
56689;BME280;42565;53.342;-1.534;2023-08-31T05:36:26;98301.68;;;14.66;59.44
56689;BME280;42565;53.342;-1.534;2023-08-31T05:38:53;98307.91;;;13.97;59.93
56689;BME280;42565;53.342;-1.534;2023-08-31T05:41:21;98308.39;;;14.82;59.63
56689;BME280;42565;53.342;-1.534;2023-08-31T05:43:48;98303.84;;;14.21;60.08
56689;BME280;42565;53.342;-1.534;2023-08-31T05:46:15;98311.54;;;14.34;61.17
56689;BME280;42565;53.342;-1.534;2023-08-31T05:48:42;98311.57;;;14.13;61.29
56689;BME280;42565;53.342;-1.534;2023-08-31T05:51:09;98312.59;;;14.22;61.30
56689;BME280;42565;53.342;-1.534;2023-08-31T05:53:37;98316.15;;;13.76;62.04
56689;BME280;42565;53.342;-1.534;2023-08-31T05:56:04;98317.67;;;14.19;61.55
56689;BME280;42565;53.342;-1.534;2023-08-31T05:58:33;98319.24;;;14.25;61.32
56689;BME280;42565;53.342;-1.534;2023-08-31T06:01:02;98320.37;;;13.73;61.81
56689;BME280;42565;53.342;-1.534;2023-08-31T06:03:29;98320.36;;;13.90;62.25
56689;BME280;42565;53.342;-1.534;2023-08-31T06:05:57;98320.72;;;13.96;61.99
56689;BME280;42565;53.342;-1.534;2023-08-31T06:08:25;98320.30;;;13.89;62.40
56689;BME280;42565;53.342;-1.534;2023-08-31T06:10:52;98321.19;;;13.88;62.56
56689;BME280;42565;53.342;-1.534;2023-08-31T06:13:19;98324.22;;;13.78;62.90
56689;BME280;42565;53.342;-1.534;2023-08-31T06:15:46;98325.93;;;12.68;63.43
56689;BME280;42565;53.342;-1.534;2023-08-31T06:18:12;98327.91;;;13.83;63.12
56689;BME280;42565;53.342;-1.534;2023-08-31T06:20:40;98328.62;;;13.18;63.06
56689;BME280;42565;53.342;-1.534;2023-08-31T06:23:08;98327.93;;;13.96;63.00
56689;BME280;42565;53.342;-1.534;2023-08-31T06:25:35;98326.38;;;13.70;63.85
56689;BME280;42565;53.342;-1.534;2023-08-31T06:28:03;98327.96;;;13.90;63.51
56689;BME280;42565;53.342;-1.534;2023-08-31T06:30:30;98328.86;;;13.64;64.36
56689;BME280;42565;53.342;-1.534;2023-08-31T06:32:58;98327.30;;;14.06;62.91
56689;BME280;42565;53.342;-1.534;2023-08-31T06:35:25;98324.03;;;14.70;62.07
56689;BME280;42565;53.342;-1.534;2023-08-31T06:37:53;98327.71;;;13.62;62.76
56689;BME280;42565;53.342;-1.534;2023-08-31T06:40:20;98322.81;;;14.59;61.83
56689;BME280;42565;53.342;-1.534;2023-08-31T06:42:48;98322.45;;;14.08;61.35
56689;BME280;42565;53.342;-1.534;2023-08-31T06:45:14;98326.51;;;14.99;60.00
56689;BME280;42565;53.342;-1.534;2023-08-31T06:47:41;98326.00;;;14.75;59.42
56689;BME280;42565;53.342;-1.534;2023-08-31T06:50:09;98324.29;;;14.93;58.70
56689;BME280;42565;53.342;-1.534;2023-08-31T06:52:36;98324.71;;;14.88;58.00
56689;BME280;42565;53.342;-1.534;2023-08-31T06:55:04;98320.13;;;15.08;57.41
56689;BME280;42565;53.342;-1.534;2023-08-31T06:57:31;98322.97;;;15.39;57.46
56689;BME280;42565;53.342;-1.534;2023-08-31T06:59:58;98324.13;;;15.80;57.26
56689;BME280;42565;53.342;-1.534;2023-08-31T07:02:26;98327.36;;;16.38;56.65
56689;BME280;42565;53.342;-1.534;2023-08-31T07:04:53;98328.19;;;15.63;55.97
56689;BME280;42565;53.342;-1.534;2023-08-31T07:07:20;98329.31;;;16.45;56.11
56689;BME280;42565;53.342;-1.534;2023-08-31T07:09:48;98328.89;;;16.07;56.69
56689;BME280;42565;53.342;-1.534;2023-08-31T07:12:15;98328.74;;;15.14;59.99
56689;BME280;42565;53.342;-1.534;2023-08-31T07:14:43;98330.54;;;15.27;60.05
56689;BME280;42565;53.342;-1.534;2023-08-31T07:17:10;98329.22;;;14.80;61.34
56689;BME280;42565;53.342;-1.534;2023-08-31T07:19:38;98329.97;;;15.03;61.84
56689;BME280;42565;53.342;-1.534;2023-08-31T07:22:05;98327.39;;;15.46;58.89
56689;BME280;42565;53.342;-1.534;2023-08-31T07:24:33;98329.20;;;15.23;61.92
56689;BME280;42565;53.342;-1.534;2023-08-31T07:27:01;98332.29;;;15.09;60.85
56689;BME280;42565;53.342;-1.534;2023-08-31T07:29:28;98333.54;;;15.35;61.67
56689;BME280;42565;53.342;-1.534;2023-08-31T07:31:56;98338.25;;;15.51;61.06
56689;BME280;42565;53.342;-1.534;2023-08-31T07:34:23;98342.72;;;16.68;58.45
56689;BME280;42565;53.342;-1.534;2023-08-31T07:36:51;98343.86;;;16.08;60.21
56689;BME280;42565;53.342;-1.534;2023-08-31T07:39:18;98341.83;;;16.04;58.56
56689;BME280;42565;53.342;-1.534;2023-08-31T07:41:44;98343.38;;;15.35;59.20
56689;BME280;42565;53.342;-1.534;2023-08-31T07:44:11;98341.33;;;16.00;60.96
56689;BME280;42565;53.342;-1.534;2023-08-31T07:46:39;98345.57;;;15.80;58.47
56689;BME280;42565;53.342;-1.534;2023-08-31T07:49:06;98351.10;;;16.51;56.52
56689;BME280;42565;53.342;-1.534;2023-08-31T07:51:33;98353.85;;;15.94;56.20
56689;BME280;42565;53.342;-1.534;2023-08-31T07:54:00;98355.59;;;16.54;56.93
56689;BME280;42565;53.342;-1.534;2023-08-31T07:56:28;98356.91;;;16.47;56.92
56689;BME280;42565;53.342;-1.534;2023-08-31T07:58:54;98358.10;;;15.10;60.14
56689;BME280;42565;53.342;-1.534;2023-08-31T08:01:21;98359.63;;;15.76;59.04
56689;BME280;42565;53.342;-1.534;2023-08-31T08:03:49;98357.74;;;15.99;58.40
56689;BME280;42565;53.342;-1.534;2023-08-31T08:06:16;98355.03;;;15.82;57.27
56689;BME280;42565;53.342;-1.534;2023-08-31T08:08:43;98353.21;;;15.32;55.64
56689;BME280;42565;53.342;-1.534;2023-08-31T08:11:10;98351.57;;;16.33;56.22
56689;BME280;42565;53.342;-1.534;2023-08-31T08:13:38;98348.23;;;16.06;56.50
56689;BME280;42565;53.342;-1.534;2023-08-31T08:16:05;98352.82;;;16.26;56.85
56689;BME280;42565;53.342;-1.534;2023-08-31T08:18:33;98352.38;;;15.93;60.16
56689;BME280;42565;53.342;-1.534;2023-08-31T08:21:00;98346.12;;;16.03;61.20
56689;BME280;42565;53.342;-1.534;2023-08-31T08:23:27;98344.48;;;16.44;58.79
56689;BME280;42565;53.342;-1.534;2023-08-31T08:25:54;98345.93;;;16.07;58.65
56689;BME280;42565;53.342;-1.534;2023-08-31T08:28:20;98345.01;;;15.81;59.14
56689;BME280;42565;53.342;-1.534;2023-08-31T08:30:48;98342.41;;;15.32;58.37
56689;BME280;42565;53.342;-1.534;2023-08-31T08:33:16;98333.66;;;15.41;58.86
56689;BME280;42565;53.342;-1.534;2023-08-31T08:35:43;98338.74;;;15.06;58.68
56689;BME280;42565;53.342;-1.534;2023-08-31T08:38:10;98342.66;;;16.09;58.94
56689;BME280;42565;53.342;-1.534;2023-08-31T08:40:38;98345.04;;;15.12;61.65
56689;BME280;42565;53.342;-1.534;2023-08-31T08:43:06;98347.34;;;15.60;59.67
56689;BME280;42565;53.342;-1.534;2023-08-31T08:45:37;98346.59;;;16.61;57.66
56689;BME280;42565;53.342;-1.534;2023-08-31T08:48:06;98346.21;;;16.18;57.02
56689;BME280;42565;53.342;-1.534;2023-08-31T08:50:34;98348.11;;;16.37;58.35
56689;BME280;42565;53.342;-1.534;2023-08-31T08:53:02;98353.40;;;15.67;58.79
56689;BME280;42565;53.342;-1.534;2023-08-31T08:55:29;98349.62;;;16.51;57.11
56689;BME280;42565;53.342;-1.534;2023-08-31T08:57:58;98358.29;;;15.66;59.16
56689;BME280;42565;53.342;-1.534;2023-08-31T09:00:26;98350.12;;;15.12;62.67
56689;BME280;42565;53.342;-1.534;2023-08-31T09:02:53;98346.68;;;15.29;63.97
56689;BME280;42565;53.342;-1.534;2023-08-31T09:05:20;98342.38;;;15.76;62.90
56689;BME280;42565;53.342;-1.534;2023-08-31T09:08:05;98339.47;;;15.58;60.65
56689;BME280;42565;53.342;-1.534;2023-08-31T09:10:35;98344.87;;;16.64;59.50
56689;BME280;42565;53.342;-1.534;2023-08-31T09:13:05;98348.25;;;16.32;57.25
56689;BME280;42565;53.342;-1.534;2023-08-31T09:15:41;98343.81;;;16.34;59.15
56689;BME280;42565;53.342;-1.534;2023-08-31T09:18:14;98348.55;;;17.58;58.24
56689;BME280;42565;53.342;-1.534;2023-08-31T09:20:44;98348.58;;;16.44;55.95
56689;BME280;42565;53.342;-1.534;2023-08-31T09:23:12;98347.97;;;16.60;59.75
56689;BME280;42565;53.342;-1.534;2023-08-31T09:25:44;98342.37;;;16.55;56.53
56689;BME280;42565;53.342;-1.534;2023-08-31T09:28:12;98341.21;;;16.30;56.61
56689;BME280;42565;53.342;-1.534;2023-08-31T09:30:40;98341.39;;;16.12;57.51
56689;BME280;42565;53.342;-1.534;2023-08-31T09:33:08;98335.34;;;17.11;57.55
56689;BME280;42565;53.342;-1.534;2023-08-31T09:35:39;98335.68;;;16.53;57.57
56689;BME280;42565;53.342;-1.534;2023-08-31T09:38:08;98331.53;;;17.11;58.11
56689;BME280;42565;53.342;-1.534;2023-08-31T09:40:36;98329.91;;;17.17;54.42
56689;BME280;42565;53.342;-1.534;2023-08-31T09:43:04;98329.54;;;17.68;53.49
56689;BME280;42565;53.342;-1.534;2023-08-31T09:45:33;98332.65;;;17.18;54.36
56689;BME280;42565;53.342;-1.534;2023-08-31T09:48:03;98331.73;;;17.56;56.16
56689;BME280;42565;53.342;-1.534;2023-08-31T09:50:32;98330.85;;;17.60;53.04
56689;BME280;42565;53.342;-1.534;2023-08-31T09:53:02;98336.00;;;17.23;52.51
56689;BME280;42565;53.342;-1.534;2023-08-31T09:55:30;98336.74;;;16.90;53.60
56689;BME280;42565;53.342;-1.534;2023-08-31T09:57:59;98333.54;;;17.90;53.06
56689;BME280;42565;53.342;-1.534;2023-08-31T10:00:27;98335.20;;;17.07;53.25
56689;BME280;42565;53.342;-1.534;2023-08-31T10:02:59;98323.98;;;17.83;50.07
56689;BME280;42565;53.342;-1.534;2023-08-31T10:05:27;98322.71;;;17.97;50.91
56689;BME280;42565;53.342;-1.534;2023-08-31T10:07:55;98331.52;;;17.76;49.81
56689;BME280;42565;53.342;-1.534;2023-08-31T10:10:23;98330.37;;;16.29;47.97
56689;BME280;42565;53.342;-1.534;2023-08-31T10:12:50;98324.92;;;18.27;47.28
56689;BME280;42565;53.342;-1.534;2023-08-31T10:15:18;98323.15;;;18.63;46.45
56689;BME280;42565;53.342;-1.534;2023-08-31T10:17:46;98320.33;;;18.21;47.33
56689;BME280;42565;53.342;-1.534;2023-08-31T10:20:16;98320.22;;;18.53;48.50
56689;BME280;42565;53.342;-1.534;2023-08-31T10:22:44;98316.97;;;17.94;46.64
56689;BME280;42565;53.342;-1.534;2023-08-31T10:25:11;98322.16;;;18.70;45.11
56689;BME280;42565;53.342;-1.534;2023-08-31T10:27:39;98316.13;;;17.87;45.14
56689;BME280;42565;53.342;-1.534;2023-08-31T10:30:14;98310.67;;;18.74;42.60
56689;BME280;42565;53.342;-1.534;2023-08-31T10:32:41;98312.55;;;18.12;43.83
56689;BME280;42565;53.342;-1.534;2023-08-31T10:35:09;98317.07;;;17.96;44.68
56689;BME280;42565;53.342;-1.534;2023-08-31T10:37:39;98311.42;;;18.00;42.62
56689;BME280;42565;53.342;-1.534;2023-08-31T10:40:08;98304.14;;;19.36;41.74
56689;BME280;42565;53.342;-1.534;2023-08-31T10:42:42;98301.08;;;18.83;40.44
56689;BME280;42565;53.342;-1.534;2023-08-31T10:45:10;98298.38;;;19.43;41.99
56689;BME280;42565;53.342;-1.534;2023-08-31T10:47:38;98291.21;;;19.31;41.65
56689;BME280;42565;53.342;-1.534;2023-08-31T10:50:22;98295.54;;;19.43;40.79
56689;BME280;42565;53.342;-1.534;2023-08-31T10:52:52;98296.58;;;18.33;43.04
56689;BME280;42565;53.342;-1.534;2023-08-31T10:55:19;98303.79;;;17.97;43.68
56689;BME280;42565;53.342;-1.534;2023-08-31T10:57:47;98286.39;;;19.21;45.64
56689;BME280;42565;53.342;-1.534;2023-08-31T11:00:46;98285.98;;;19.14;44.00
56689;BME280;42565;53.342;-1.534;2023-08-31T11:03:13;98288.03;;;18.94;44.34
56689;BME280;42565;53.342;-1.534;2023-08-31T11:05:50;98292.74;;;19.25;43.65
56689;BME280;42565;53.342;-1.534;2023-08-31T11:08:22;98297.38;;;17.83;46.94
56689;BME280;42565;53.342;-1.534;2023-08-31T11:10:49;98291.25;;;18.95;46.55
56689;BME280;42565;53.342;-1.534;2023-08-31T11:13:18;98290.26;;;19.00;46.93
56689;BME280;42565;53.342;-1.534;2023-08-31T11:15:46;98294.06;;;19.39;41.92
56689;BME280;42565;53.342;-1.534;2023-08-31T11:18:14;98311.17;;;17.27;46.08
56689;BME280;42565;53.342;-1.534;2023-08-31T11:20:42;98300.07;;;16.41;48.28
56689;BME280;42565;53.342;-1.534;2023-08-31T11:23:10;98294.76;;;17.35;48.39
56689;BME280;42565;53.342;-1.534;2023-08-31T11:25:38;98299.28;;;17.35;46.84
56689;BME280;42565;53.342;-1.534;2023-08-31T11:28:06;98294.89;;;18.17;45.01
56689;BME280;42565;53.342;-1.534;2023-08-31T11:30:34;98293.19;;;17.79;47.03
56689;BME280;42565;53.342;-1.534;2023-08-31T11:33:03;98287.58;;;17.74;47.00
56689;BME280;42565;53.342;-1.534;2023-08-31T11:35:33;98288.24;;;17.88;49.14
56689;BME280;42565;53.342;-1.534;2023-08-31T11:38:02;98289.14;;;17.32;50.76
56689;BME280;42565;53.342;-1.534;2023-08-31T11:40:30;98289.05;;;17.51;48.86
56689;BME280;42565;53.342;-1.534;2023-08-31T11:42:57;98282.17;;;17.69;47.53
56689;BME280;42565;53.342;-1.534;2023-08-31T11:45:24;98282.50;;;18.30;46.41
56689;BME280;42565;53.342;-1.534;2023-08-31T11:47:53;98276.99;;;19.33;43.91
56689;BME280;42565;53.342;-1.534;2023-08-31T11:50:21;98282.92;;;19.19;42.67
56689;BME280;42565;53.342;-1.534;2023-08-31T11:52:49;98274.58;;;18.62;42.06
56689;BME280;42565;53.342;-1.534;2023-08-31T11:55:17;98273.42;;;19.59;40.29
56689;BME280;42565;53.342;-1.534;2023-08-31T11:57:49;98266.49;;;19.14;40.05
56689;BME280;42565;53.342;-1.534;2023-08-31T12:00:17;98272.99;;;19.27;41.08
56689;BME280;42565;53.342;-1.534;2023-08-31T12:02:44;98266.75;;;18.13;41.78
56689;BME280;42565;53.342;-1.534;2023-08-31T12:05:11;98265.41;;;19.99;41.37
56689;BME280;42565;53.342;-1.534;2023-08-31T12:07:40;98266.84;;;19.24;39.38
56689;BME280;42565;53.342;-1.534;2023-08-31T12:10:08;98270.53;;;17.95;41.60
56689;BME280;42565;53.342;-1.534;2023-08-31T12:12:36;98268.96;;;17.18;40.94
56689;BME280;42565;53.342;-1.534;2023-08-31T12:15:05;98273.29;;;18.64;39.69
56689;BME280;42565;53.342;-1.534;2023-08-31T12:17:37;98275.08;;;18.24;38.97
56689;BME280;42565;53.342;-1.534;2023-08-31T12:20:05;98274.98;;;19.18;39.31
56689;BME280;42565;53.342;-1.534;2023-08-31T12:22:33;98282.98;;;19.56;37.41
56689;BME280;42565;53.342;-1.534;2023-08-31T12:25:00;98280.80;;;20.14;38.31
56689;BME280;42565;53.342;-1.534;2023-08-31T12:27:27;98284.98;;;20.37;37.26
56689;BME280;42565;53.342;-1.534;2023-08-31T12:29:54;98278.21;;;20.11;37.81
56689;BME280;42565;53.342;-1.534;2023-08-31T12:32:22;98271.50;;;19.93;37.49
56689;BME280;42565;53.342;-1.534;2023-08-31T12:34:49;98277.95;;;18.98;38.13
56689;BME280;42565;53.342;-1.534;2023-08-31T12:37:17;98272.05;;;18.89;40.14
56689;BME280;42565;53.342;-1.534;2023-08-31T12:39:44;98276.53;;;17.98;39.32
56689;BME280;42565;53.342;-1.534;2023-08-31T12:42:12;98284.77;;;18.61;40.60
56689;BME280;42565;53.342;-1.534;2023-08-31T12:44:40;98271.98;;;18.41;38.70
56689;BME280;42565;53.342;-1.534;2023-08-31T12:47:07;98269.82;;;19.39;37.76
56689;BME280;42565;53.342;-1.534;2023-08-31T12:49:33;98264.59;;;18.82;37.68
56689;BME280;42565;53.342;-1.534;2023-08-31T12:52:00;98267.15;;;19.15;36.07
56689;BME280;42565;53.342;-1.534;2023-08-31T12:54:27;98265.94;;;19.16;36.22
56689;BME280;42565;53.342;-1.534;2023-08-31T12:56:54;98263.79;;;19.09;36.96